KBTV/BTV METAR and TAF weather

Enter ICAO airport designator
Station Type Date Time Source
KBTV METAR 2019/10/21 04:54 UTC NOAA

KBTV 210454Z 00000KT 10SM CLR 06/04 A3005 RMK AO2 SLP177 T00560039 401330011


Station Type Date Time Source
KBTV Decoded METAR 2019/10/21 04:54 UTC NOAA

BURLINGTON INTERNATIONAL, VT, United States (KBTV) 44-28N 73-09W 105M
Oct 21, 2019 - 12:54 AM EDT / 2019.10.21 0454 UTC
Wind: Calm:0
Visibility: 10 mile(s):0
Sky conditions: clear
Temperature: 42.1 F (5.6 C)
Dew Point: 39.0 F (3.9 C)
Relative Humidity: 88%
Pressure (altimeter): 30.05 in. Hg (1017 hPa)
ob: KBTV 210454Z 00000KT 10SM CLR 06/04 A3005 RMK AO2 SLP177 T00560039 401330011
cycle: 5

Station Type Date Time Source
KBTV TAF 2019/10/21 03:33 UTC NOAA

TAF
AMD KBTV 210230Z 2103/2124 VRB03KT P6SM SKC
TEMPO 2107/2111 3SM BR SCT001
FM211700 35005KT P6SM SKC

Example: see airport list